Time;durP1;ratioP1;P1;durP2;ratioP2;P2;SDS_P1;SDS_P2;PMS_P1;PMS_P2;Temp;Humidity;BMP_temperature;BMP_pressure;BME280_temperature;BME280_humidity;BME280_pressure;Samples;Min_cycle;Max_cycle;Signal;HPM_P1;HPM_P2
2023/04/23 00:01:01;;;;;;;27.55;17.67;;;;;;;;;;4861561;29;20048;-89
2023/04/23 00:03:31;;;;;;;25.55;18.40;;;;;;;;;;4863898;29;20077;-88
2023/04/23 00:05:58;;;;;;;28.63;17.90;;;;;;;;;;4863755;29;20108;-89
2023/04/23 00:08:24;;;;;;;36.65;19.83;;;;;;;;;;4848510;29;20052;-94
2023/04/23 00:10:50;;;;;;;33.13;20.13;;;;;;;;;;4859780;29;20510;-92
2023/04/23 00:13:17;;;;;;;45.78;20.75;;;;;;;;;;4858243;29;20451;-90
2023/04/23 00:15:43;;;;;;;76.07;20.70;;;;;;;;;;4855940;29;20104;-89
2023/04/23 00:18:09;;;;;;;113.63;23.63;;;;;;;;;;4855570;29;20049;-89
2023/04/23 00:20:35;;;;;;;110.95;21.70;;;;;;;;;;4840053;29;20514;-93
2023/04/23 00:23:04;;;;;;;91.60;20.42;;;;;;;;;;4854157;29;20049;-89
2023/04/23 00:25:30;;;;;;;99.60;20.45;;;;;;;;;;4854010;29;20131;-91
2023/04/23 00:27:56;;;;;;;117.82;21.90;;;;;;;;;;4854496;29;20095;-94
2023/04/23 00:30:23;;;;;;;71.72;20.17;;;;;;;;;;4854545;29;20399;-92
2023/04/23 00:32:49;;;;;;;34.35;18.08;;;;;;;;;;4855204;29;20057;-92
2023/04/23 00:35:15;;;;;;;85.53;21.42;;;;;;;;;;4854319;29;20131;-89
2023/04/23 00:37:41;;;;;;;50.25;17.67;;;;;;;;;;4855415;29;20451;-92
2023/04/23 00:40:07;;;;;;;81.30;21.38;;;;;;;;;;4854938;29;20077;-93
2023/04/23 00:42:33;;;;;;;85.40;20.73;;;;;;;;;;4854596;29;20045;-93
2023/04/23 00:45:01;;;;;;;96.70;25.17;;;;;;;;;;4856181;29;20045;-92
2023/04/23 00:47:29;;;;;;;114.10;23.27;;;;;;;;;;4854827;29;20131;-94
2023/04/23 00:49:56;;;;;;;87.85;21.50;;;;;;;;;;4854431;29;20112;-92
2023/04/23 00:52:22;;;;;;;94.07;22.00;;;;;;;;;;4854308;29;20406;-89
2023/04/23 00:54:48;;;;;;;111.88;22.13;;;;;;;;;;4854316;29;20033;-91
2023/04/23 00:57:15;;;;;;;89.97;21.83;;;;;;;;;;4855578;29;20498;-90
2023/04/23 00:59:41;;;;;;;87.70;23.33;;;;;;;;;;4872431;29;20041;-90
2023/04/23 01:02:08;;;;;;;65.32;21.10;;;;;;;;;;4856477;29;20490;-94
2023/04/23 01:04:35;;;;;;;69.90;20.80;;;;;;;;;;4856964;29;21077;-92
2023/04/23 01:07:01;;;;;;;70.45;21.95;;;;;;;;;;4855873;29;20084;-92
2023/04/23 01:09:27;;;;;;;89.68;23.08;;;;;;;;;;4872984;29;20037;-91
2023/04/23 01:11:54;;;;;;;56.85;22.17;;;;;;;;;;4840699;29;20059;-94
2023/04/23 01:14:20;;;;;;;77.63;22.10;;;;;;;;;;4869157;29;20041;-88
2023/04/23 01:16:46;;;;;;;97.00;24.40;;;;;;;;;;4869554;29;20057;-89
2023/04/23 01:19:14;;;;;;;76.53;22.40;;;;;;;;;;4867408;29;21093;-92
2023/04/23 01:21:41;;;;;;;58.97;22.85;;;;;;;;;;4872047;29;20057;-89
2023/04/23 01:24:08;;;;;;;75.95;22.23;;;;;;;;;;4862288;29;20104;-89
2023/04/23 01:26:34;;;;;;;61.17;23.00;;;;;;;;;;4847302;29;20075;-90
2023/04/23 01:29:04;;;;;;;71.15;23.25;;;;;;;;;;4861633;29;20059;-92
2023/04/23 01:31:30;;;;;;;51.38;24.25;;;;;;;;;;4854364;29;20068;-89
2023/04/23 01:33:57;;;;;;;49.80;23.73;;;;;;;;;;4863005;29;20041;-87
2023/04/23 01:36:25;;;;;;;43.17;23.38;;;;;;;;;;4881638;29;20049;-89
2023/04/23 01:38:54;;;;;;;39.17;21.58;;;;;;;;;;4859308;29;20502;-89
2023/04/23 01:41:20;;;;;;;45.53;23.50;;;;;;;;;;4856184;29;20048;-94
2023/04/23 01:43:46;;;;;;;37.15;22.42;;;;;;;;;;4855217;29;20068;-91
2023/04/23 01:46:13;;;;;;;42.30;23.17;;;;;;;;;;4855763;29;20039;-90
2023/04/23 01:48:39;;;;;;;42.00;24.00;;;;;;;;;;4855294;29;20076;-90
2023/04/23 01:51:05;;;;;;;47.80;25.67;;;;;;;;;;4839638;29;20053;-93
2023/04/23 01:53:31;;;;;;;41.65;25.25;;;;;;;;;;4854391;29;20056;-90
2023/04/23 01:55:57;;;;;;;39.80;23.58;;;;;;;;;;4838708;29;20053;-89
2023/04/23 01:58:24;;;;;;;41.67;24.38;;;;;;;;;;4852268;29;20164;-90
2023/04/23 02:00:50;;;;;;;44.20;24.08;;;;;;;;;;4853104;29;20052;-91
2023/04/23 02:03:16;;;;;;;48.65;23.55;;;;;;;;;;4852737;29;20037;-89
2023/04/23 02:05:42;;;;;;;45.55;23.88;;;;;;;;;;4853312;29;20052;-89
2023/04/23 02:08:09;;;;;;;43.88;25.13;;;;;;;;;;4853852;29;20128;-92
2023/04/23 02:10:35;;;;;;;41.78;24.35;;;;;;;;;;4853195;29;20059;-89
2023/04/23 02:13:02;;;;;;;44.83;23.98;;;;;;;;;;4839141;29;20052;-88
2023/04/23 02:15:28;;;;;;;44.85;26.25;;;;;;;;;;4869169;29;20514;-90
2023/04/23 02:17:54;;;;;;;53.25;28.05;;;;;;;;;;4852069;29;20056;-93
2023/04/23 02:20:21;;;;;;;56.33;26.40;;;;;;;;;;4853175;29;20532;-89
2023/04/23 02:22:48;;;;;;;64.18;31.42;;;;;;;;;;4852828;29;20680;-91
2023/04/23 02:25:15;;;;;;;55.85;30.75;;;;;;;;;;4852301;29;20049;-89
2023/04/23 02:27:41;;;;;;;69.43;32.65;;;;;;;;;;4851867;29;20061;-89
2023/04/23 02:30:10;;;;;;;82.40;34.40;;;;;;;;;;4868940;29;20161;-90
2023/04/23 02:32:36;;;;;;;74.07;32.78;;;;;;;;;;4852648;29;20057;-91
2023/04/23 02:35:04;;;;;;;77.00;37.80;;;;;;;;;;4868611;29;20413;-88
2023/04/23 02:37:31;;;;;;;90.32;38.80;;;;;;;;;;4852597;29;20040;-94
2023/04/23 02:39:58;;;;;;;93.53;37.20;;;;;;;;;;4869056;29;20047;-88
2023/04/23 02:42:24;;;;;;;96.15;41.33;;;;;;;;;;4852707;29;20192;-89
2023/04/23 02:44:50;;;;;;;108.68;40.78;;;;;;;;;;4852837;29;20049;-88
2023/04/23 02:47:16;;;;;;;93.75;41.53;;;;;;;;;;4851971;29;20047;-89
2023/04/23 02:49:42;;;;;;;126.82;43.67;;;;;;;;;;4851887;29;20045;-88
2023/04/23 02:52:08;;;;;;;101.32;41.63;;;;;;;;;;4852491;29;20515;-88
2023/04/23 02:54:35;;;;;;;129.45;42.13;;;;;;;;;;4869886;29;20128;-89
2023/04/23 02:57:04;;;;;;;146.32;44.05;;;;;;;;;;4868916;29;20049;-92
2023/04/23 02:59:30;;;;;;;118.07;41.83;;;;;;;;;;4852196;29;20045;-94
2023/04/23 03:01:59;;;;;;;126.03;40.15;;;;;;;;;;4856887;29;20056;-92
2023/04/23 03:04:27;;;;;;;102.57;38.47;;;;;;;;;;4876597;29;20136;-88
2023/04/23 03:06:53;;;;;;;94.32;37.50;;;;;;;;;;4861365;29;21439;-92
2023/04/23 03:09:19;;;;;;;169.80;43.13;;;;;;;;;;4858374;29;20532;-93
2023/04/23 03:11:45;;;;;;;144.63;41.47;;;;;;;;;;4855732;29;20458;-89
2023/04/23 03:14:11;;;;;;;237.43;45.17;;;;;;;;;;4856840;29;20059;-91
2023/04/23 03:16:37;;;;;;;205.55;40.75;;;;;;;;;;4856584;29;20113;-91
2023/04/23 03:19:03;;;;;;;228.07;44.35;;;;;;;;;;4856786;29;20065;-89
2023/04/23 03:21:30;;;;;;;251.27;47.90;;;;;;;;;;4857231;29;20084;-91
2023/04/23 03:23:56;;;;;;;195.13;43.08;;;;;;;;;;4873517;29;20406;-91
2023/04/23 03:26:22;;;;;;;182.80;45.28;;;;;;;;;;4857379;29;20090;-90
2023/04/23 03:28:48;;;;;;;203.85;47.05;;;;;;;;;;4855056;29;20052;-89
2023/04/23 03:31:14;;;;;;;154.90;41.45;;;;;;;;;;4855438;29;20092;-89
2023/04/23 03:33:40;;;;;;;226.75;47.45;;;;;;;;;;4856398;29;20092;-90
2023/04/23 03:36:07;;;;;;;153.82;44.05;;;;;;;;;;4841996;29;20056;-92
2023/04/23 03:38:33;;;;;;;229.75;48.50;;;;;;;;;;4872907;29;20080;-92
2023/04/23 03:40:59;;;;;;;178.63;49.80;;;;;;;;;;4855699;29;20057;-92
2023/04/23 03:43:25;;;;;;;169.75;47.83;;;;;;;;;;4840425;29;20039;-89
2023/04/23 03:45:51;;;;;;;170.27;51.58;;;;;;;;;;4855873;29;20045;-92
2023/04/23 03:48:17;;;;;;;133.23;46.88;;;;;;;;;;4856341;29;20045;-94
2023/04/23 03:50:43;;;;;;;122.75;47.83;;;;;;;;;;4842153;29;20053;-96
2023/04/23 03:53:10;;;;;;;172.07;51.88;;;;;;;;;;4857456;29;20041;-95
2023/04/23 03:55:36;;;;;;;121.25;47.72;;;;;;;;;;4855805;29;20041;-90
2023/04/23 03:58:02;;;;;;;116.13;45.83;;;;;;;;;;4855750;29;20049;-94
2023/04/23 04:00:29;;;;;;;138.80;46.65;;;;;;;;;;4857411;29;20056;-93
2023/04/23 04:02:55;;;;;;;131.73;49.45;;;;;;;;;;4855109;29;20037;-89
2023/04/23 04:05:21;;;;;;;145.23;50.05;;;;;;;;;;4855061;29;20089;-90
2023/04/23 04:07:47;;;;;;;177.00;53.70;;;;;;;;;;4855190;29;20096;-89
2023/04/23 04:10:14;;;;;;;131.90;50.65;;;;;;;;;;4855886;29;20052;-91
2023/04/23 04:12:41;;;;;;;149.38;53.63;;;;;;;;;;4854077;29;20376;-90
2023/04/23 04:15:07;;;;;;;161.02;52.13;;;;;;;;;;4855404;29;20118;-92
2023/04/23 04:17:33;;;;;;;122.03;53.10;;;;;;;;;;4856304;29;20037;-88
2023/04/23 04:19:59;;;;;;;127.93;53.53;;;;;;;;;;4856024;29;20049;-91
2023/04/23 04:22:25;;;;;;;151.05;58.05;;;;;;;;;;4855196;29;20045;-93
2023/04/23 04:24:52;;;;;;;130.50;54.42;;;;;;;;;;4839564;29;20044;-90
2023/04/23 04:27:18;;;;;;;124.88;52.25;;;;;;;;;;4855203;29;20100;-92
2023/04/23 04:29:44;;;;;;;133.55;53.03;;;;;;;;;;4854703;29;20097;-90
2023/04/23 04:32:10;;;;;;;129.55;55.38;;;;;;;;;;4854869;29;20048;-93
2023/04/23 04:34:37;;;;;;;136.70;53.90;;;;;;;;;;4854982;29;20120;-93
2023/04/23 04:37:03;;;;;;;138.93;54.13;;;;;;;;;;4855446;29;20100;-89
2023/04/23 04:39:29;;;;;;;130.25;53.17;;;;;;;;;;4856212;29;20037;-89
2023/04/23 04:41:56;;;;;;;114.97;51.67;;;;;;;;;;4854991;29;20061;-89
2023/04/23 04:44:22;;;;;;;121.47;54.28;;;;;;;;;;4854543;29;20076;-88
2023/04/23 04:46:48;;;;;;;116.43;52.20;;;;;;;;;;4854558;29;20053;-88
2023/04/23 04:49:17;;;;;;;134.75;56.95;;;;;;;;;;4854908;29;20048;-88
2023/04/23 04:51:43;;;;;;;118.63;53.40;;;;;;;;;;4854770;29;20133;-92
2023/04/23 04:54:09;;;;;;;117.10;52.22;;;;;;;;;;4854563;29;20064;-92
2023/04/23 04:56:35;;;;;;;122.15;50.13;;;;;;;;;;4854545;29;20053;-94
2023/04/23 04:59:01;;;;;;;120.15;51.65;;;;;;;;;;4872330;29;20140;-91
2023/04/23 05:01:28;;;;;;;116.82;51.83;;;;;;;;;;4840923;29;20041;-93
2023/04/23 05:03:57;;;;;;;106.97;48.90;;;;;;;;;;4870618;29;20112;-93
2023/04/23 05:06:23;;;;;;;108.35;50.88;;;;;;;;;;4854905;29;20045;-92
2023/04/23 05:08:49;;;;;;;106.32;49.90;;;;;;;;;;4853261;29;20435;-87
2023/04/23 05:11:16;;;;;;;107.63;48.42;;;;;;;;;;4870383;29;20045;-89
2023/04/23 05:13:43;;;;;;;104.20;49.22;;;;;;;;;;4854773;29;20166;-88
2023/04/23 05:16:10;;;;;;;114.10;49.58;;;;;;;;;;4839938;29;20418;-92
2023/04/23 05:18:37;;;;;;;100.55;49.80;;;;;;;;;;4854700;29;20448;-93
2023/04/23 05:21:03;;;;;;;117.43;50.50;;;;;;;;;;4839188;29;20056;-89
2023/04/23 05:23:29;;;;;;;109.35;50.58;;;;;;;;;;4856278;29;20041;-89
2023/04/23 05:25:56;;;;;;;89.43;43.08;;;;;;;;;;4855653;29;20056;-90
2023/04/23 05:28:22;;;;;;;114.15;50.40;;;;;;;;;;4853980;29;20123;-89
2023/04/23 05:30:49;;;;;;;112.28;50.70;;;;;;;;;;4854499;29;20108;-92
2023/04/23 05:33:15;;;;;;;99.22;47.85;;;;;;;;;;4853939;29;20077;-95
2023/04/23 05:35:41;;;;;;;97.28;46.63;;;;;;;;;;4854185;29;20076;-92
2023/04/23 05:38:08;;;;;;;97.63;44.72;;;;;;;;;;4839308;29;20061;-92
2023/04/23 05:40:34;;;;;;;101.82;46.65;;;;;;;;;;4870714;29;20423;-92
2023/04/23 05:43:00;;;;;;;95.97;46.15;;;;;;;;;;4853847;29;20191;-90
2023/04/23 05:45:26;;;;;;;80.03;42.65;;;;;;;;;;4853682;29;20396;-92
2023/04/23 05:47:53;;;;;;;91.22;43.88;;;;;;;;;;4853542;29;20132;-92
2023/04/23 05:50:19;;;;;;;90.93;45.63;;;;;;;;;;4853986;29;20059;-94
2023/04/23 05:52:45;;;;;;;79.93;42.05;;;;;;;;;;4854471;29;20086;-91
2023/04/23 05:55:14;;;;;;;95.47;43.75;;;;;;;;;;4854781;29;20048;-92
2023/04/23 05:57:40;;;;;;;77.68;40.20;;;;;;;;;;4853542;29;20100;-95
2023/04/23 06:00:10;;;;;;;80.55;40.50;;;;;;;;;;4854280;29;20053;-93
2023/04/23 06:02:37;;;;;;;76.50;41.58;;;;;;;;;;4853594;29;20047;-92
2023/04/23 06:05:03;;;;;;;71.43;38.85;;;;;;;;;;4854017;29;20099;-94
2023/04/23 06:07:29;;;;;;;73.50;38.75;;;;;;;;;;4853272;29;20041;-90
2023/04/23 06:09:58;;;;;;;77.95;40.17;;;;;;;;;;4839099;29;20081;-90
2023/04/23 06:12:24;;;;;;;66.10;37.67;;;;;;;;;;4853866;29;20045;-90
2023/04/23 06:14:51;;;;;;;76.18;37.63;;;;;;;;;;4853607;29;20112;-92
2023/04/23 06:17:17;;;;;;;68.70;38.83;;;;;;;;;;4854046;29;20057;-93
2023/04/23 06:19:43;;;;;;;65.53;36.10;;;;;;;;;;4853257;29;20045;-90
2023/04/23 06:22:12;;;;;;;68.88;37.00;;;;;;;;;;4853785;29;20083;-91
2023/04/23 06:24:38;;;;;;;77.45;37.67;;;;;;;;;;4855258;29;20064;-93
2023/04/23 06:27:04;;;;;;;68.25;37.72;;;;;;;;;;4854110;29;20049;-89
2023/04/23 06:29:31;;;;;;;64.00;37.05;;;;;;;;;;4871069;29;20634;-91
2023/04/23 06:32:01;;;;;;;71.97;38.35;;;;;;;;;;4853843;29;20079;-93
2023/04/23 06:34:27;;;;;;;65.78;35.15;;;;;;;;;;4852593;29;20057;-91
2023/04/23 06:36:53;;;;;;;65.13;36.90;;;;;;;;;;4853030;29;20051;-89
2023/04/23 06:39:20;;;;;;;64.70;37.92;;;;;;;;;;4837343;29;20041;-89
2023/04/23 06:41:46;;;;;;;65.80;37.55;;;;;;;;;;4852145;29;20045;-89
2023/04/23 06:44:12;;;;;;;72.53;38.95;;;;;;;;;;4853391;29;20060;-92
2023/04/23 06:46:38;;;;;;;77.10;39.30;;;;;;;;;;4852742;29;20049;-89
2023/04/23 06:49:04;;;;;;;76.97;39.33;;;;;;;;;;4852036;29;20041;-91
2023/04/23 06:51:31;;;;;;;80.15;42.55;;;;;;;;;;4852830;29;20139;-89
2023/04/23 06:53:59;;;;;;;70.18;38.80;;;;;;;;;;4867391;29;20193;-92
2023/04/23 06:56:26;;;;;;;84.93;41.33;;;;;;;;;;4855733;29;20060;-92
2023/04/23 06:58:52;;;;;;;75.82;38.47;;;;;;;;;;4876554;29;20081;-89
2023/04/23 07:01:27;;;;;;;82.28;42.05;;;;;;;;;;4855703;29;20037;-89
2023/04/23 07:03:53;;;;;;;64.97;40.55;;;;;;;;;;4854901;29;20178;-95
2023/04/23 07:06:19;;;;;;;77.20;39.20;;;;;;;;;;4858237;29;20136;-89
2023/04/23 07:08:46;;;;;;;74.75;42.00;;;;;;;;;;4858302;29;20048;-88
2023/04/23 07:11:12;;;;;;;59.85;35.40;;;;;;;;;;4855005;29;20052;-89
2023/04/23 07:13:38;;;;;;;76.03;38.17;;;;;;;;;;4871440;29;20394;-90
2023/04/23 07:16:04;;;;;;;65.00;35.78;;;;;;;;;;4853428;29;20476;-92
2023/04/23 07:18:30;;;;;;;64.85;34.85;;;;;;;;;;4857260;29;20132;-88
2023/04/23 07:20:56;;;;;;;56.63;34.10;;;;;;;;;;4872915;29;20042;-92
2023/04/23 07:23:22;;;;;;;61.10;35.47;;;;;;;;;;4857715;29;20041;-90
2023/04/23 07:25:48;;;;;;;57.13;31.95;;;;;;;;;;4857036;29;20061;-92
2023/04/23 07:28:14;;;;;;;63.53;34.47;;;;;;;;;;4854079;29;20046;-88
2023/04/23 07:30:41;;;;;;;59.30;33.13;;;;;;;;;;4854053;29;20469;-88
2023/04/23 07:33:07;;;;;;;60.85;32.22;;;;;;;;;;4854679;29;20037;-91
2023/04/23 07:35:33;;;;;;;62.42;33.65;;;;;;;;;;4852396;29;20054;-89
2023/04/23 07:37:59;;;;;;;60.28;34.15;;;;;;;;;;4852118;29;20116;-92
2023/04/23 07:40:25;;;;;;;63.63;34.15;;;;;;;;;;4853676;29;20045;-91
2023/04/23 07:42:51;;;;;;;60.25;34.33;;;;;;;;;;4853769;29;20033;-91
2023/04/23 07:45:18;;;;;;;60.00;33.05;;;;;;;;;;4852017;29;20049;-89
2023/04/23 07:47:45;;;;;;;50.25;32.17;;;;;;;;;;4855207;29;20058;-92
2023/04/23 07:50:11;;;;;;;54.60;30.77;;;;;;;;;;4857051;29;20136;-93
2023/04/23 07:52:37;;;;;;;53.55;30.75;;;;;;;;;;4857645;29;20058;-89
2023/04/23 07:55:04;;;;;;;52.40;30.80;;;;;;;;;;4857463;29;20056;-91
2023/04/23 07:57:30;;;;;;;46.25;29.92;;;;;;;;;;4856163;29;20396;-90
2023/04/23 07:59:56;;;;;;;49.42;29.83;;;;;;;;;;4855319;29;20041;-89
2023/04/23 08:02:25;;;;;;;44.50;29.10;;;;;;;;;;4854989;29;20491;-89
2023/04/23 08:04:51;;;;;;;47.97;29.05;;;;;;;;;;4857195;29;20062;-89
2023/04/23 08:07:17;;;;;;;45.85;28.98;;;;;;;;;;4855243;29;20070;-88
2023/04/23 08:09:44;;;;;;;44.38;27.50;;;;;;;;;;4852882;29;20042;-87
2023/04/23 08:12:10;;;;;;;40.42;26.60;;;;;;;;;;4852265;29;20091;-88
2023/04/23 08:14:36;;;;;;;42.00;27.55;;;;;;;;;;4852995;29;20053;-88
2023/04/23 08:17:03;;;;;;;41.97;25.17;;;;;;;;;;4869035;29;20060;-89
2023/04/23 08:19:32;;;;;;;45.05;25.98;;;;;;;;;;4875401;29;20041;-90
2023/04/23 08:21:58;;;;;;;39.50;25.92;;;;;;;;;;4872755;29;20103;-91
2023/04/23 08:24:25;;;;;;;45.03;28.08;;;;;;;;;;4854596;29;20088;-88
2023/04/23 08:26:51;;;;;;;42.83;24.33;;;;;;;;;;4854600;29;20060;-89
2023/04/23 08:29:17;;;;;;;43.75;25.40;;;;;;;;;;4854577;29;20139;-90
2023/04/23 08:31:43;;;;;;;40.28;25.80;;;;;;;;;;4854185;29;20502;-92
2023/04/23 08:34:09;;;;;;;37.22;24.88;;;;;;;;;;4855088;29;20080;-87
2023/04/23 08:36:36;;;;;;;38.60;22.88;;;;;;;;;;4855768;29;20524;-91
2023/04/23 08:39:02;;;;;;;37.50;24.80;;;;;;;;;;4871861;29;20063;-89
2023/04/23 08:41:32;;;;;;;40.72;24.17;;;;;;;;;;4871624;29;20045;-89
2023/04/23 08:44:05;;;;;;;36.88;23.00;;;;;;;;;;4859484;29;20045;-88
2023/04/23 08:46:32;;;;;;;37.35;23.15;;;;;;;;;;4855829;29;20498;-91
2023/04/23 08:49:00;;;;;;;33.75;22.95;;;;;;;;;;4872214;29;20040;-87
2023/04/23 08:51:28;;;;;;;36.45;23.95;;;;;;;;;;4857302;29;20073;-94
2023/04/23 08:53:56;;;;;;;36.92;22.42;;;;;;;;;;4858895;29;20076;-88
2023/04/23 08:56:23;;;;;;;33.97;22.33;;;;;;;;;;4871621;29;20112;-91
2023/04/23 08:58:52;;;;;;;34.53;22.10;;;;;;;;;;4870722;29;20041;-90
2023/04/23 09:01:19;;;;;;;30.88;19.92;;;;;;;;;;4854920;29;20056;-93
2023/04/23 09:03:46;;;;;;;29.17;19.15;;;;;;;;;;4857302;29;20068;-89
2023/04/23 09:06:13;;;;;;;28.35;18.67;;;;;;;;;;4855088;29;20048;-91
2023/04/23 09:08:39;;;;;;;35.00;20.35;;;;;;;;;;4870919;29;20059;-87
2023/04/23 09:11:05;;;;;;;30.88;18.25;;;;;;;;;;4869499;29;20159;-88
2023/04/23 09:13:36;;;;;;;30.98;18.35;;;;;;;;;;4871871;29;20057;-90
2023/04/23 09:16:04;;;;;;;25.98;16.67;;;;;;;;;;4851051;29;20057;-92
2023/04/23 09:18:30;;;;;;;26.83;17.50;;;;;;;;;;4850717;29;20125;-87
2023/04/23 09:20:57;;;;;;;21.58;15.80;;;;;;;;;;4838212;29;20520;-85
2023/04/23 09:23:23;;;;;;;24.83;16.13;;;;;;;;;;4852377;29;20045;-83
2023/04/23 09:25:49;;;;;;;22.52;16.08;;;;;;;;;;4851234;29;20444;-83
2023/04/23 09:28:15;;;;;;;22.33;15.55;;;;;;;;;;4850310;29;20046;-82
2023/04/23 09:30:45;;;;;;;21.00;14.40;;;;;;;;;;4849617;29;20064;-82
2023/04/23 09:33:11;;;;;;;21.92;15.15;;;;;;;;;;4852793;29;20054;-91
2023/04/23 09:35:37;;;;;;;20.23;14.45;;;;;;;;;;4850088;29;20050;-82
2023/04/23 09:38:06;;;;;;;24.45;16.92;;;;;;;;;;4849521;29;20038;-86
2023/04/23 09:40:33;;;;;;;21.42;15.98;;;13.90;99.90;;;;;;4849527;29;20132;-86
2023/04/23 09:42:59;;;;;;;20.17;14.43;;;;;;;;;;4835536;29;20049;-91
2023/04/23 09:45:25;;;;;;;20.10;14.82;;;;;;;;;;4834771;29;20045;-82
2023/04/23 09:47:51;;;;;;;23.85;14.15;;;;;;;;;;4849109;29;20088;-84
2023/04/23 09:50:18;;;;;;;18.13;13.15;;;14.40;99.90;;;;;;4848908;29;20057;-84
2023/04/23 09:52:44;;;;;;;15.45;11.18;;;;;;;;;;4848987;29;20043;-82
2023/04/23 09:55:10;;;;;;;18.85;12.27;;;14.50;99.90;;;;;;4848948;29;20514;-84
2023/04/23 09:57:46;;;;;;;17.27;11.98;;;14.40;99.90;;;;;;4863754;29;20053;-87
2023/04/23 10:00:16;;;;;;;18.23;12.63;;;;;;;;;;4848859;29;20545;-85
2023/04/23 10:02:49;;;;;;;18.27;12.93;;;;;;;;;;4849280;29;20050;-83
2023/04/23 10:05:16;;;;;;;19.85;10.55;;;;;;;;;;4849269;29;20045;-86
2023/04/23 10:07:45;;;;;;;19.25;11.68;;;14.60;99.90;;;;;;4849058;29;20124;-82
2023/04/23 10:10:11;;;;;;;19.23;11.20;;;;;;;;;;4848375;29;20045;-83
2023/04/23 10:12:38;;;;;;;12.85;10.00;;;;;;;;;;4848730;29;20144;-81
2023/04/23 10:15:04;;;;;;;15.30;9.55;;;14.60;99.90;;;;;;4848531;29;20056;-82
2023/04/23 10:17:31;;;;;;;12.13;8.00;;;;;;;;;;4863644;29;20137;-87
2023/04/23 10:20:00;;;;;;;12.95;8.55;;;14.90;99.90;;;;;;4848739;29;20053;-83
2023/04/23 10:22:28;;;;;;;10.40;7.50;;;15.10;99.90;;;;;;4848415;29;20411;-82
2023/04/23 10:24:57;;;;;;;10.90;7.28;;;;;;;;;;4848588;29;20060;-82
2023/04/23 10:27:30;;;;;;;15.05;8.07;;;15.50;99.90;;;;;;4848665;29;20048;-85
2023/04/23 10:30:00;;;;;;;13.97;7.60;;;15.70;99.90;;;;;;4864075;29;20561;-82
2023/04/23 10:32:26;;;;;;;12.63;6.70;;;;;;;;;;4848633;29;20045;-83
2023/04/23 10:34:53;;;;;;;13.98;7.20;;;;;;;;;;4848123;29;20547;-82
2023/04/23 10:37:20;;;;;;;12.85;6.30;;;;;;;;;;4848129;29;20518;-83
2023/04/23 10:39:54;;;;;;;9.05;5.00;;;16.20;99.90;;;;;;4832840;29;20101;-83
2023/04/23 10:42:20;;;;;;;14.07;5.45;;;;;;;;;;4849552;29;20093;-84
2023/04/23 10:44:46;;;;;;;13.05;4.70;;;;;;;;;;4847835;29;20045;-84
2023/04/23 10:47:14;;;;;;;11.85;6.00;;;;;;;;;;4849561;29;20129;-83
2023/04/23 10:49:41;;;;;;;13.35;5.35;;;;;;;;;;4849531;29;20093;-84
2023/04/23 10:52:08;;;;;;;11.95;5.07;;;;;;;;;;4849490;29;20503;-86
2023/04/23 10:54:35;;;;;;;12.90;4.70;;;;;;;;;;4848421;29;20041;-84
2023/04/23 10:57:05;;;;;;;10.85;4.95;;;;;;;;;;4848236;29;20058;-86
2023/04/23 10:59:33;;;;;;;6.95;4.28;;;16.80;99.90;;;;;;4849683;29;20046;-86
2023/04/23 11:02:05;;;;;;;9.02;3.28;;;;;;;;;;4849043;29;20178;-84
2023/04/23 11:04:33;;;;;;;9.80;4.55;;;17.20;99.90;;;;;;4863667;29;20557;-85
2023/04/23 11:07:09;;;;;;;8.18;3.85;;;17.30;99.90;;;;;;4849566;29;20045;-89
2023/04/23 11:09:47;;;;;;;5.53;3.33;;;17.20;99.90;;;;;;4832772;29;20594;-89
2023/04/23 11:12:31;;;;;;;10.18;4.10;;;17.20;99.90;;;;;;4849852;29;20546;-86
2023/04/23 11:15:00;;;;;;;10.77;4.43;;;;;;;;;;4851352;29;20140;-88
2023/04/23 11:17:32;;;;;;;7.68;4.47;;;;;;;;;;4862962;29;20503;-86
2023/04/23 11:20:12;;;;;;;5.55;3.58;;;17.30;99.90;;;;;;4864713;29;20053;-86
2023/04/23 11:22:38;;;;;;;16.10;4.10;;;;;;;;;;4868801;29;20047;-86
2023/04/23 11:25:05;;;;;;;6.95;4.47;;;;;;;;;;4852392;29;20045;-85
2023/04/23 11:27:31;;;;;;;14.68;3.70;;;;;;;;;;4852200;29;20160;-86
2023/04/23 11:29:57;;;;;;;7.03;3.88;;;;;;;;;;4852414;29;20184;-85
2023/04/23 11:32:24;;;;;;;6.10;3.55;;;;;;;;;;4852396;29;20052;-84
2023/04/23 11:34:52;;;;;;;13.07;4.32;;;;;;;;;;4853420;29;20881;-85
2023/04/23 11:37:18;;;;;;;7.25;3.63;;;;;;;;;;4851368;29;20049;-85
2023/04/23 11:39:46;;;;;;;7.15;3.42;;;;;;;;;;4866954;29;20295;-85
2023/04/23 11:42:16;;;;;;;6.10;3.70;;;17.10;99.90;;;;;;4852790;29;20054;-84
2023/04/23 11:44:44;;;;;;;5.60;2.72;;;17.20;99.90;;;;;;4851522;29;20541;-84
2023/04/23 11:47:12;;;;;;;5.03;3.13;;;17.10;99.90;;;;;;4852710;29;20065;-84
2023/04/23 11:49:38;;;;;;;11.75;3.72;;;;;;;;;;4851210;29;20743;-85
2023/04/23 11:52:05;;;;;;;6.05;2.85;;;;;;;;;;4852337;29;20053;-84
2023/04/23 11:54:32;;;;;;;8.63;3.20;;;;;;;;;;4850803;29;20073;-82
2023/04/23 11:56:58;;;;;;;6.90;2.55;;;;;;;;;;4852148;29;20088;-83
2023/04/23 11:59:25;;;;;;;6.40;2.90;;;;;;;;;;4866915;29;20038;-83
2023/04/23 12:01:54;;;;;;;6.75;2.17;;;;;;;;;;4853439;29;20105;-85
2023/04/23 12:04:25;;;;;;;10.95;2.90;;;17.10;99.90;;;;;;4853073;29;20105;-83
2023/04/23 12:06:52;;;;;;;5.63;2.17;;;17.40;99.90;;;;;;4866970;29;20057;-85
2023/04/23 12:09:20;;;;;;;3.10;1.90;;;17.60;99.90;;;;;;4836109;29;20050;-84
2023/04/23 12:11:46;;;;;;;4.72;1.90;;;;;;;;;;4852034;29;20045;-86
2023/04/23 12:14:13;;;;;;;8.63;2.10;;;17.50;99.90;;;;;;4850787;29;20042;-84
2023/04/23 12:16:42;;;;;;;9.45;4.47;;;17.50;99.90;;;;;;4837181;29;20085;-86
2023/04/23 12:19:17;;;;;;;13.68;6.68;;;17.80;99.90;;;;;;4836950;29;20943;-84
2023/04/23 12:21:54;;;;;;;14.30;6.50;;;17.90;99.90;;;;;;4851402;29;20046;-85
2023/04/23 12:24:25;;;;;;;4.70;2.63;;;17.90;99.90;;;;;;4852454;29;20507;-85
2023/04/23 12:27:01;;;;;;;13.05;7.47;;;17.90;99.90;;;;;;4865862;29;20366;-84
2023/04/23 12:29:29;;;;;;;14.65;7.45;;;17.70;99.90;;;;;;4851265;29;20101;-84
2023/04/23 12:31:57;;;;;;;13.88;9.50;;;17.70;99.90;;;;;;4850592;29;20053;-85
2023/04/23 12:34:23;;;;;;;21.23;7.63;;;;;;;;;;4834155;29;20046;-85
2023/04/23 12:36:54;;;;;;;10.40;5.00;;;17.70;99.90;;;;;;4851253;29;20049;-85
2023/04/23 12:39:22;;;;;;;10.05;6.20;;;;;;;;;;4850773;29;20061;-85
2023/04/23 12:41:54;;;;;;;8.88;4.63;;;17.70;99.90;;;;;;4852103;29;20109;-85
2023/04/23 12:44:22;;;;;;;43.78;26.58;;;;;;;;;;4852692;29;20056;-88
2023/04/23 12:46:56;;;;;;;13.73;7.88;;;;;;;;;;4852001;29;20049;-88
2023/04/23 12:49:23;;;;;;;10.90;6.10;;;;;;;;;;4852060;29;20038;-88
2023/04/23 12:51:49;;;;;;;14.30;7.10;;;;;;;;;;4851721;29;20053;-91
2023/04/23 12:54:15;;;;;;;3.63;2.42;;;;;;;;;;4850671;29;20136;-87
2023/04/23 12:56:41;;;;;;;3.80;2.03;;;;;;;;;;4836275;29;20248;-87
2023/04/23 12:59:07;;;;;;;3.35;1.80;;;;;;;;;;4853232;29;20037;-86
2023/04/23 13:01:33;;;;;;;4.13;2.17;;;;;;;;;;4851503;29;20563;-87
2023/04/23 13:04:00;;;;;;;6.43;2.15;;;;;;;;;;4852989;29;20547;-87
2023/04/23 13:06:28;;;;;;;8.63;3.35;;;;;;;;;;4853428;29;20518;-87
2023/04/23 13:08:54;;;;;;;6.35;3.08;;;;;;;;;;4836671;29;20045;-87
2023/04/23 13:11:23;;;;;;;6.80;2.90;;;18.10;99.90;;;;;;4853523;29;20053;-87
2023/04/23 13:13:50;;;;;;;2.90;2.13;;;;;;;;;;4862344;29;20101;-88
2023/04/23 13:16:17;;;;;;;6.25;2.13;;;;;;;;;;4864377;29;20053;-87
2023/04/23 13:18:43;;;;;;;5.20;2.47;;;;;;;;;;4863962;29;20044;-88
2023/04/23 13:21:09;;;;;;;3.60;1.77;;;;;;;;;;4876877;29;20057;-88
2023/04/23 13:23:36;;;;;;;6.75;2.60;;;;;;;;;;4861621;29;20380;-87
2023/04/23 13:26:07;;;;;;;5.80;2.42;;;18.00;99.90;;;;;;4878181;29;20059;-87
2023/04/23 13:28:33;;;;;;;8.13;2.20;;;;;;;;;;4877908;29;20526;-87
2023/04/23 13:30:59;;;;;;;3.45;1.55;;;;;;;;;;4878588;29;20048;-86
2023/04/23 13:33:26;;;;;;;5.32;2.22;;;;;;;;;;4845951;29;20053;-86
2023/04/23 13:35:53;;;;;;;6.05;2.20;;;;;;;;;;4862489;29;20053;-89
2023/04/23 13:38:26;;;;;;;7.80;1.92;;;;;;;;;;4864175;29;20045;-93
2023/04/23 13:40:52;;;;;;;8.13;1.83;;;;;;;;;;4879873;29;20049;-85
2023/04/23 13:43:19;;;;;;;5.45;3.15;;;;;;;;;;4876465;29;20052;-87
2023/04/23 13:45:47;;;;;;;16.85;8.07;;;18.00;99.90;;;;;;4868670;29;20057;-86
2023/04/23 13:48:14;;;;;;;6.03;2.35;;;18.50;99.90;;;;;;4867734;29;20053;-84
2023/04/23 13:50:40;;;;;;;6.10;2.65;;;;;;;;;;4868906;29;20118;-83
2023/04/23 13:53:06;;;;;;;5.05;2.80;;;;;;;;;;4867344;29;20045;-84
2023/04/23 13:55:32;;;;;;;3.83;1.98;;;;;;;;;;4867370;29;20052;-84
2023/04/23 13:57:59;;;;;;;7.63;2.45;;;;;;;;;;4867188;29;20091;-84
2023/04/23 14:00:27;;;;;;;9.50;4.72;;;18.20;99.90;;;;;;4837146;29;20097;-83
2023/04/23 14:02:53;;;;;;;7.57;2.67;;;;;;;;;;4851866;29;20132;-86
2023/04/23 14:05:19;;;;;;;8.23;2.47;;;;;;;;;;4851353;29;20037;-85